East Orleans, MA (02643)

1:24 PM EDT on September 03, 2015 (GMT -0400)
Town Cove | | Change Station
CLOSE
Current Station
Personal Weather Station
Location: Orleans, MA
Elevation: 16 ft
Nearby Weather Stations

Elev 16 ft 41.79 °N, 69.98 °W | Updated 13 minutes ago

Clear
Clear
82.3 °F
Feels Like 87 °F
N
3.0
Wind Variable Wind from North
Gusts 6.0 mph

Today
High -- | Low -- °F
--% Chance of Precip.
Yesterday
High -- | Low -- °F
Precip. -- in
6:07 AM 7:10 PM
Waning Gibbous, 68% visible
Pressure 29.86 in
Visibility 10.0 miles
Clouds Clear
Heat Index 87 °F
Dew Point 72 °F
Humidity 72%
Rainfall 0.00 in
Snow Depth Not available.
UV 9 out of 12
Pollen 8.60 out of 12
Air Quality Not available.
Flu Activity Not available.
METAR KCQX 031652Z AUTO 21005KT 10SM CLR 28/22 A2986 RMK AO2 SLP112 T02780222
Pressure 29.86 in
Visibility 10.0 miles
Clouds Clear
Heat Index 87 °F
Dew Point 72 °F
Humidity 72%
Rainfall 0.00 in
Snow Depth Not available.
UV 9 out of 12
Pollen 8.60 out of 12
Air Quality Not available.
Flu Activity Not available.
METAR KCQX 031652Z AUTO 21005KT 10SM CLR 28/22 A2986 RMK AO2 SLP112 T02780222

10-Day Weather Forecast

×

Almanac

Astronomy

Sep. 03, 2015 Rise Set
Actual Time
Civil Twilight
Nautical Twilight
Astronomical Twilight
Moon
Length of Visible Light
Length of Day
Tomorrow will be .
, % of the Moon is Illuminated

Today's Extremes

State Highs State Lows

Community

WunderPhotos

Upload Photos

1,851,990 photos uploaded!

WunderBlogs® & News

Nearby

Air Quality

  Air Quality AQ Index Pollutant
Not available.

Snow Depth

Station Depth Elevation

Earthquake Activity

City Distance Mag. Time & Date
Minimum magnitude displayed is 2.5.

Coastal Water Temperatures

Place Temperature

Stations

Nearby Weather Stations

Station Location Temp. Windchill Dew Point Humidity Wind Precip. Elev Updated Type